Terminal Aerodrome Forecast
Issued by NWS Binghamton, NY

Home | Current Version | Previous Version | Text Only | Print | Product List | Glossary On
Versions: 1 2 3 4 5 6 7 8 9 10 11 12 13 14 15 16 17
000
FTUS41 KBGM 031735
TAFAVP
TAF
KAVP 031735Z 0318/0418 21005KT P6SM SCT100
     FM040400 13005KT P6SM OVC080
      TEMPO 0408/0412 -SHRA OVC040
     FM041200 05005KT 5SM -SHRA BR OVC025=

USA.gov is the U.S. government's official web portal to all federal, state and local government web resources and services.